createdAt,value
2022-11-19T00:00:23.619Z,3.7
2022-11-19T00:06:43.516Z,3.7
2022-11-19T00:13:06.549Z,3.9
2022-11-19T00:19:26.537Z,3.9
2022-11-19T00:25:49.645Z,4.2
2022-11-19T00:32:09.510Z,4.2
2022-11-19T00:38:32.621Z,2.8
2022-11-19T00:44:52.513Z,2.8
2022-11-19T00:51:15.514Z,5
2022-11-19T00:57:35.662Z,5
2022-11-19T01:03:58.567Z,2.7
2022-11-19T01:10:18.565Z,2.7
2022-11-19T01:16:41.599Z,3.2
2022-11-19T01:23:01.561Z,3.2
2022-11-19T01:29:24.506Z,3
2022-11-19T01:35:44.560Z,3
2022-11-19T01:42:07.518Z,4.4
2022-11-19T01:48:27.531Z,4.4
2022-11-19T01:54:50.557Z,4
2022-11-19T02:01:10.501Z,4
2022-11-19T02:07:33.660Z,3.6
2022-11-19T02:13:53.540Z,3.6
2022-11-19T02:20:16.584Z,1.2
2022-11-19T02:26:36.527Z,1.2
2022-11-19T02:32:59.585Z,2.7
2022-11-19T02:39:19.792Z,2.7
2022-11-19T02:45:42.669Z,3.6
2022-11-19T02:52:02.564Z,3.6
2022-11-19T02:58:25.529Z,2.3
2022-11-19T03:04:45.554Z,2.3
2022-11-19T03:11:08.515Z,3.1
2022-11-19T03:17:28.559Z,3.1
2022-11-19T03:23:51.477Z,0.2
2022-11-19T03:30:11.590Z,0.2
2022-11-19T03:36:34.597Z,0.4
2022-11-19T03:42:54.595Z,0.4
2022-11-19T03:49:17.825Z,0.6
2022-11-19T03:55:37.504Z,0.6
2022-11-19T04:02:00.561Z,0.5
2022-11-19T04:08:20.580Z,0.5
2022-11-19T04:14:43.604Z,0.9
2022-11-19T04:21:03.601Z,0.9
2022-11-19T04:37:50.145Z,0.5
2022-11-19T04:44:10.531Z,0.5
2022-11-19T04:50:33.478Z,2.3
2022-11-19T04:56:53.520Z,2.3
2022-11-19T05:03:16.486Z,2.3
2022-11-19T05:09:36.588Z,2.3
2022-11-19T05:15:59.660Z,2.3
2022-11-19T05:22:19.702Z,2.3
2022-11-19T05:28:42.577Z,3.8
2022-11-19T05:35:02.548Z,3.8
2022-11-19T05:41:25.745Z,6
2022-11-19T05:47:48.552Z,6
2022-11-19T05:54:08.691Z,6.6
2022-11-19T06:00:28.646Z,6.6
2022-11-19T06:06:51.624Z,5.2
2022-11-19T06:13:11.736Z,5.2
2022-11-19T06:19:34.635Z,4
2022-11-19T06:25:54.593Z,4
2022-11-19T06:32:17.666Z,5.9
2022-11-19T06:38:37.555Z,5.9
2022-11-19T06:45:00.608Z,5
2022-11-19T06:51:20.587Z,5
2022-11-19T06:57:43.599Z,6.1
2022-11-19T07:04:03.627Z,6.1
2022-11-19T07:10:26.502Z,8
2022-11-19T07:16:46.580Z,8
2022-11-19T07:23:09.521Z,8.3
2022-11-19T07:29:29.485Z,8.3
2022-11-19T07:35:52.692Z,6.5
2022-11-19T07:42:12.563Z,6.5
2022-11-19T07:48:35.645Z,9.6
2022-11-19T07:54:55.557Z,9.6
2022-11-19T08:01:18.710Z,10.1
2022-11-19T08:07:38.807Z,10.1
2022-11-19T08:14:01.566Z,5.7
2022-11-19T08:20:21.607Z,5.7
2022-11-19T08:26:44.570Z,5.8
2022-11-19T08:33:04.522Z,5.8
2022-11-19T08:39:27.827Z,7.5
2022-11-19T08:45:47.612Z,7.5
2022-11-19T08:52:10.646Z,7.5
2022-11-19T08:58:30.523Z,7.5
2022-11-19T09:04:53.663Z,4.3
2022-11-19T09:11:13.571Z,4.3
2022-11-19T09:17:36.653Z,6.6
2022-11-19T09:41:35.440Z,5.8
2022-11-19T09:47:55.484Z,5.8
2022-11-19T09:54:18.838Z,3.3
2022-11-19T10:00:38.546Z,3.3
2022-11-19T10:07:01.537Z,5.9
2022-11-19T10:13:21.716Z,5.9
2022-11-19T10:19:44.658Z,3
2022-11-19T10:26:04.622Z,3
2022-11-19T10:32:27.549Z,6.1
2022-11-19T10:38:51.138Z,6.1
2022-11-19T10:45:10.527Z,4.9
2022-11-19T10:51:30.480Z,4.9
2022-11-19T10:57:53.700Z,8.3
2022-11-19T11:04:13.612Z,8.3
2022-11-19T11:10:36.556Z,5.6
2022-11-19T11:16:56.670Z,5.6
2022-11-19T11:23:19.623Z,4.1
2022-11-19T11:29:39.699Z,4.1
2022-11-19T11:36:02.609Z,5.3
2022-11-19T11:42:22.530Z,5.3
2022-11-19T11:48:45.570Z,4.1
2022-11-19T11:55:05.566Z,4.1
2022-11-19T12:01:28.561Z,5.4
2022-11-19T12:07:48.546Z,5.4
2022-11-19T12:14:11.603Z,5.4
2022-11-19T12:20:31.607Z,5.4
2022-11-19T12:26:54.551Z,5.9
2022-11-19T12:33:14.573Z,5.9
2022-11-19T12:39:37.592Z,4.3
2022-11-19T12:45:57.511Z,4.3
2022-11-19T12:52:20.784Z,6.4
2022-11-19T12:58:40.622Z,6.4
2022-11-19T13:05:03.604Z,3.7
2022-11-19T13:11:23.676Z,3.7
2022-11-19T13:17:46.539Z,6.5
2022-11-19T13:24:06.644Z,6.5
2022-11-19T13:30:29.622Z,5
2022-11-19T13:36:49.552Z,5
2022-11-19T13:49:32.575Z,5.1
2022-11-19T13:55:55.629Z,4
2022-11-19T14:02:15.619Z,4
2022-11-19T14:08:38.698Z,6.6
2022-11-19T14:14:58.633Z,6.6
2022-11-19T14:21:21.570Z,3.6
2022-11-19T14:27:41.566Z,3.6
2022-11-19T14:34:04.662Z,4.1
2022-11-19T14:49:54.448Z,9.4
2022-11-19T14:56:14.472Z,9.4
2022-11-19T15:02:37.466Z,9.7
2022-11-19T15:08:57.557Z,9.7
2022-11-19T15:15:20.507Z,2.9
2022-11-19T15:21:40.612Z,2.9
2022-11-19T15:28:03.704Z,7.9
2022-11-19T15:34:23.515Z,7.9
2022-11-19T15:40:46.627Z,3.6
2022-11-19T15:47:06.631Z,3.6
2022-11-19T15:53:29.517Z,4.4
2022-11-19T15:59:49.513Z,4.4
2022-11-19T16:06:12.655Z,6.1
2022-11-19T16:12:32.659Z,6.1
2022-11-19T16:18:55.464Z,5.9
2022-11-19T16:25:15.687Z,5.9
2022-11-19T16:31:38.569Z,5.2
2022-11-19T16:37:58.600Z,5.2
2022-11-19T16:44:22.036Z,3.1
2022-11-19T16:50:46.487Z,3.1
2022-11-19T16:57:04.624Z,4.7
2022-11-19T17:03:24.600Z,4.7
2022-11-19T17:09:47.565Z,7
2022-11-19T17:16:07.604Z,7
2022-11-19T17:22:30.585Z,4.6
2022-11-19T17:28:50.591Z,4.6
2022-11-19T17:35:13.626Z,6.7
2022-11-19T17:41:33.596Z,6.7
2022-11-19T17:47:56.537Z,6.1
2022-11-19T17:54:16.473Z,6.1
2022-11-19T18:00:39.729Z,5.9
2022-11-19T18:06:59.520Z,5.9
2022-11-19T18:13:22.545Z,4.6
2022-11-19T18:19:42.624Z,4.6
2022-11-19T18:26:05.463Z,4.8
2022-11-19T18:32:25.694Z,4.8
2022-11-19T18:38:49.101Z,4.8
2022-11-19T18:45:08.730Z,4.8
2022-11-19T18:51:31.823Z,6.3
2022-11-19T18:57:51.779Z,6.3
2022-11-19T19:04:14.863Z,6.5
2022-11-19T19:10:34.697Z,6.5
2022-11-19T19:16:57.676Z,5.7
2022-11-19T19:23:17.541Z,5.7
2022-11-19T19:29:40.605Z,4
2022-11-19T19:36:00.782Z,4
2022-11-19T19:51:34.926Z,7.7
2022-11-19T19:57:54.513Z,7.7
2022-11-19T20:04:17.553Z,7.8
2022-11-19T20:10:37.537Z,7.8
2022-11-19T20:17:00.642Z,4.5
2022-11-19T20:23:20.653Z,4.5
2022-11-19T20:29:43.502Z,6.7
2022-11-19T20:36:03.500Z,6.7
2022-11-19T20:42:26.583Z,6.2
2022-11-19T20:48:46.577Z,6.2
2022-11-19T20:55:09.504Z,7.1
2022-11-19T21:01:31.249Z,7.1
2022-11-19T21:07:52.595Z,6.6
2022-11-19T21:14:12.507Z,6.6
2022-11-19T21:20:35.491Z,6.2
2022-11-19T21:26:55.668Z,6.2
2022-11-19T21:33:18.662Z,9.4
2022-11-19T21:39:38.671Z,9.4
2022-11-19T21:46:01.619Z,7
2022-11-19T21:52:21.589Z,7
2022-11-19T21:58:44.756Z,5.9
2022-11-19T22:05:04.616Z,5.9
2022-11-19T22:11:27.553Z,7.6
2022-11-19T22:17:47.594Z,7.6
2022-11-19T22:24:10.661Z,7
2022-11-19T22:30:30.649Z,7
2022-11-19T22:36:53.585Z,7
2022-11-19T22:43:13.608Z,7
2022-11-19T22:49:36.610Z,7.1
2022-11-19T22:55:56.681Z,7.1
2022-11-19T23:02:19.598Z,6.7
2022-11-19T23:25:16.524Z,13.3
2022-11-19T23:31:36.477Z,13.3
2022-11-19T23:37:59.592Z,13.3
2022-11-19T23:44:19.589Z,13.3
2022-11-19T23:50:42.618Z,7.2
2022-11-19T23:57:02.620Z,7.2
